sensor_id;sensor_type;location;lat;lon;timestamp;P1;durP1;ratioP1;P2;durP2;ratioP2
57561;SDS011;43397;51.530;5.974;2023-04-21T00:01:27;55.25;;;32.47;;
57561;SDS011;43397;51.530;5.974;2023-04-21T00:03:52;52.97;;;31.85;;
57561;SDS011;43397;51.530;5.974;2023-04-21T00:06:19;52.00;;;30.80;;
57561;SDS011;43397;51.530;5.974;2023-04-21T00:08:45;50.45;;;30.70;;
57561;SDS011;43397;51.530;5.974;2023-04-21T00:11:11;51.85;;;30.33;;
57561;SDS011;43397;51.530;5.974;2023-04-21T00:13:36;54.25;;;31.38;;
57561;SDS011;43397;51.530;5.974;2023-04-21T00:16:02;53.55;;;31.15;;
57561;SDS011;43397;51.530;5.974;2023-04-21T00:18:28;48.45;;;29.30;;
57561;SDS011;43397;51.530;5.974;2023-04-21T00:20:53;51.33;;;29.80;;
57561;SDS011;43397;51.530;5.974;2023-04-21T00:23:20;50.38;;;30.02;;
57561;SDS011;43397;51.530;5.974;2023-04-21T00:25:46;47.03;;;28.15;;
57561;SDS011;43397;51.530;5.974;2023-04-21T00:28:12;53.13;;;31.20;;
57561;SDS011;43397;51.530;5.974;2023-04-21T00:30:37;54.10;;;30.95;;
57561;SDS011;43397;51.530;5.974;2023-04-21T00:33:03;48.15;;;27.83;;
57561;SDS011;43397;51.530;5.974;2023-04-21T00:35:29;52.15;;;29.73;;
57561;SDS011;43397;51.530;5.974;2023-04-21T00:37:55;54.67;;;30.42;;
57561;SDS011;43397;51.530;5.974;2023-04-21T00:40:22;53.28;;;30.40;;
57561;SDS011;43397;51.530;5.974;2023-04-21T00:42:47;52.90;;;29.08;;
57561;SDS011;43397;51.530;5.974;2023-04-21T00:45:13;52.53;;;28.77;;
57561;SDS011;43397;51.530;5.974;2023-04-21T00:47:38;52.90;;;29.00;;
57561;SDS011;43397;51.530;5.974;2023-04-21T00:50:04;53.05;;;31.15;;
57561;SDS011;43397;51.530;5.974;2023-04-21T00:52:30;53.38;;;30.80;;
57561;SDS011;43397;51.530;5.974;2023-04-21T00:54:57;57.42;;;29.58;;
57561;SDS011;43397;51.530;5.974;2023-04-21T00:57:25;56.22;;;30.13;;
57561;SDS011;43397;51.530;5.974;2023-04-21T00:59:51;54.47;;;30.50;;
57561;SDS011;43397;51.530;5.974;2023-04-21T01:02:17;52.88;;;29.15;;
57561;SDS011;43397;51.530;5.974;2023-04-21T01:04:43;52.85;;;27.02;;
57561;SDS011;43397;51.530;5.974;2023-04-21T01:07:09;50.75;;;28.85;;
57561;SDS011;43397;51.530;5.974;2023-04-21T01:09:34;53.90;;;29.33;;
57561;SDS011;43397;51.530;5.974;2023-04-21T01:12:00;50.33;;;26.67;;
57561;SDS011;43397;51.530;5.974;2023-04-21T01:14:29;53.35;;;27.52;;
57561;SDS011;43397;51.530;5.974;2023-04-21T01:16:54;49.28;;;28.75;;
57561;SDS011;43397;51.530;5.974;2023-04-21T01:19:20;53.33;;;30.02;;
57561;SDS011;43397;51.530;5.974;2023-04-21T01:21:48;54.53;;;28.67;;
57561;SDS011;43397;51.530;5.974;2023-04-21T01:24:13;55.95;;;29.30;;
57561;SDS011;43397;51.530;5.974;2023-04-21T01:26:39;57.83;;;29.52;;
57561;SDS011;43397;51.530;5.974;2023-04-21T01:29:04;57.00;;;30.00;;
57561;SDS011;43397;51.530;5.974;2023-04-21T01:31:30;53.17;;;29.45;;
57561;SDS011;43397;51.530;5.974;2023-04-21T01:33:56;55.40;;;30.08;;
57561;SDS011;43397;51.530;5.974;2023-04-21T01:36:23;55.15;;;29.50;;
57561;SDS011;43397;51.530;5.974;2023-04-21T01:38:50;10.27;;;6.35;;
57561;SDS011;43397;51.530;5.974;2023-04-21T01:41:17;0.82;;;0.82;;
57561;SDS011;43397;51.530;5.974;2023-04-21T01:43:42;3.60;;;1.92;;
57561;SDS011;43397;51.530;5.974;2023-04-21T01:46:08;2.50;;;2.30;;
57561;SDS011;43397;51.530;5.974;2023-04-21T01:48:35;4.38;;;3.92;;
57561;SDS011;43397;51.530;5.974;2023-04-21T01:51:01;4.28;;;2.85;;
57561;SDS011;43397;51.530;5.974;2023-04-21T01:53:27;4.25;;;3.05;;
57561;SDS011;43397;51.530;5.974;2023-04-21T01:55:54;7.80;;;4.32;;
57561;SDS011;43397;51.530;5.974;2023-04-21T01:58:19;1.95;;;1.30;;
57561;SDS011;43397;51.530;5.974;2023-04-21T02:00:45;4.38;;;3.75;;
57561;SDS011;43397;51.530;5.974;2023-04-21T02:03:11;0.68;;;0.68;;
57561;SDS011;43397;51.530;5.974;2023-04-21T02:05:36;2.88;;;2.67;;
57561;SDS011;43397;51.530;5.974;2023-04-21T02:08:02;9.63;;;4.53;;
57561;SDS011;43397;51.530;5.974;2023-04-21T02:10:29;6.07;;;1.60;;
57561;SDS011;43397;51.530;5.974;2023-04-21T02:12:56;8.85;;;4.90;;
57561;SDS011;43397;51.530;5.974;2023-04-21T02:15:21;1.52;;;1.42;;
57561;SDS011;43397;51.530;5.974;2023-04-21T02:17:47;5.50;;;3.17;;
57561;SDS011;43397;51.530;5.974;2023-04-21T02:20:13;4.32;;;4.03;;
57561;SDS011;43397;51.530;5.974;2023-04-21T02:22:38;8.73;;;5.07;;
57561;SDS011;43397;51.530;5.974;2023-04-21T02:25:04;6.10;;;4.45;;
57561;SDS011;43397;51.530;5.974;2023-04-21T02:27:30;2.55;;;2.35;;
57561;SDS011;43397;51.530;5.974;2023-04-21T02:29:57;1.80;;;1.65;;
57561;SDS011;43397;51.530;5.974;2023-04-21T02:32:23;4.32;;;3.75;;
57561;SDS011;43397;51.530;5.974;2023-04-21T02:34:49;5.40;;;2.10;;
57561;SDS011;43397;51.530;5.974;2023-04-21T02:37:14;3.20;;;2.90;;
57561;SDS011;43397;51.530;5.974;2023-04-21T02:39:40;4.68;;;2.47;;
57561;SDS011;43397;51.530;5.974;2023-04-21T02:42:05;3.33;;;2.42;;
57561;SDS011;43397;51.530;5.974;2023-04-21T02:44:31;4.50;;;3.20;;
57561;SDS011;43397;51.530;5.974;2023-04-21T02:46:58;2.97;;;2.38;;
57561;SDS011;43397;51.530;5.974;2023-04-21T02:49:24;7.07;;;4.00;;
57561;SDS011;43397;51.530;5.974;2023-04-21T02:51:49;4.55;;;3.53;;
57561;SDS011;43397;51.530;5.974;2023-04-21T02:54:15;3.17;;;2.90;;
57561;SDS011;43397;51.530;5.974;2023-04-21T02:56:41;3.17;;;2.92;;
57561;SDS011;43397;51.530;5.974;2023-04-21T02:59:06;2.60;;;2.40;;
57561;SDS011;43397;51.530;5.974;2023-04-21T03:01:32;3.80;;;3.53;;
57561;SDS011;43397;51.530;5.974;2023-04-21T03:03:59;5.85;;;2.78;;
57561;SDS011;43397;51.530;5.974;2023-04-21T03:06:25;2.45;;;2.22;;
57561;SDS011;43397;51.530;5.974;2023-04-21T03:08:50;5.07;;;4.68;;
57561;SDS011;43397;51.530;5.974;2023-04-21T03:11:16;4.75;;;1.98;;
57561;SDS011;43397;51.530;5.974;2023-04-21T03:13:41;5.28;;;3.88;;
57561;SDS011;43397;51.530;5.974;2023-04-21T03:16:07;6.80;;;2.47;;
57561;SDS011;43397;51.530;5.974;2023-04-21T03:18:33;8.50;;;3.78;;
57561;SDS011;43397;51.530;5.974;2023-04-21T03:21:00;2.15;;;1.95;;
57561;SDS011;43397;51.530;5.974;2023-04-21T03:23:26;5.55;;;2.67;;
57561;SDS011;43397;51.530;5.974;2023-04-21T03:25:52;5.43;;;3.33;;
57561;SDS011;43397;51.530;5.974;2023-04-21T03:28:17;3.58;;;2.65;;
57561;SDS011;43397;51.530;5.974;2023-04-21T03:30:43;3.70;;;1.98;;
57561;SDS011;43397;51.530;5.974;2023-04-21T03:33:08;7.28;;;4.40;;
57561;SDS011;43397;51.530;5.974;2023-04-21T03:35:34;5.18;;;4.00;;
57561;SDS011;43397;51.530;5.974;2023-04-21T03:38:01;6.57;;;4.97;;
57561;SDS011;43397;51.530;5.974;2023-04-21T03:40:27;4.47;;;3.15;;
57561;SDS011;43397;51.530;5.974;2023-04-21T03:42:53;4.07;;;3.00;;
57561;SDS011;43397;51.530;5.974;2023-04-21T03:45:18;3.45;;;3.25;;
57561;SDS011;43397;51.530;5.974;2023-04-21T03:47:44;7.47;;;6.60;;
57561;SDS011;43397;51.530;5.974;2023-04-21T03:50:09;3.65;;;2.80;;
57561;SDS011;43397;51.530;5.974;2023-04-21T03:52:35;18.00;;;3.75;;
57561;SDS011;43397;51.530;5.974;2023-04-21T03:55:02;3.05;;;2.78;;
57561;SDS011;43397;51.530;5.974;2023-04-21T03:57:28;4.35;;;3.55;;
57561;SDS011;43397;51.530;5.974;2023-04-21T03:59:54;3.55;;;3.22;;
57561;SDS011;43397;51.530;5.974;2023-04-21T04:02:19;9.82;;;4.32;;
57561;SDS011;43397;51.530;5.974;2023-04-21T04:04:45;6.05;;;2.80;;
57561;SDS011;43397;51.530;5.974;2023-04-21T04:07:11;6.20;;;5.60;;
57561;SDS011;43397;51.530;5.974;2023-04-21T04:09:36;2.83;;;2.55;;
57561;SDS011;43397;51.530;5.974;2023-04-21T04:12:04;2.88;;;2.53;;
57561;SDS011;43397;51.530;5.974;2023-04-21T04:14:29;3.33;;;3.13;;
57561;SDS011;43397;51.530;5.974;2023-04-21T04:16:55;3.72;;;3.15;;
57561;SDS011;43397;51.530;5.974;2023-04-21T04:19:22;4.13;;;3.83;;
57561;SDS011;43397;51.530;5.974;2023-04-21T04:21:53;5.53;;;3.05;;
57561;SDS011;43397;51.530;5.974;2023-04-21T04:24:19;5.30;;;4.30;;
57561;SDS011;43397;51.530;5.974;2023-04-21T04:26:45;3.63;;;2.75;;
57561;SDS011;43397;51.530;5.974;2023-04-21T04:29:12;5.15;;;2.67;;
57561;SDS011;43397;51.530;5.974;2023-04-21T04:31:37;5.82;;;3.35;;
57561;SDS011;43397;51.530;5.974;2023-04-21T04:34:03;6.75;;;2.85;;
57561;SDS011;43397;51.530;5.974;2023-04-21T04:36:29;6.93;;;2.88;;
57561;SDS011;43397;51.530;5.974;2023-04-21T04:38:54;3.75;;;3.22;;
57561;SDS011;43397;51.530;5.974;2023-04-21T04:41:20;11.45;;;3.95;;
57561;SDS011;43397;51.530;5.974;2023-04-21T04:43:46;9.73;;;3.95;;
57561;SDS011;43397;51.530;5.974;2023-04-21T04:46:13;6.03;;;4.65;;
57561;SDS011;43397;51.530;5.974;2023-04-21T04:48:38;4.32;;;3.20;;
57561;SDS011;43397;51.530;5.974;2023-04-21T04:51:04;2.95;;;2.50;;
57561;SDS011;43397;51.530;5.974;2023-04-21T04:53:30;4.35;;;2.88;;
57561;SDS011;43397;51.530;5.974;2023-04-21T04:55:57;3.88;;;2.42;;
57561;SDS011;43397;51.530;5.974;2023-04-21T04:58:23;4.35;;;4.03;;
57561;SDS011;43397;51.530;5.974;2023-04-21T05:00:48;3.33;;;3.03;;
57561;SDS011;43397;51.530;5.974;2023-04-21T05:03:15;3.35;;;2.53;;
57561;SDS011;43397;51.530;5.974;2023-04-21T05:05:41;8.45;;;4.20;;
57561;SDS011;43397;51.530;5.974;2023-04-21T05:08:07;3.30;;;2.83;;
57561;SDS011;43397;51.530;5.974;2023-04-21T05:10:32;4.13;;;3.83;;
57561;SDS011;43397;51.530;5.974;2023-04-21T05:12:58;3.53;;;3.20;;
57561;SDS011;43397;51.530;5.974;2023-04-21T05:15:24;9.25;;;4.95;;
57561;SDS011;43397;51.530;5.974;2023-04-21T05:17:49;6.78;;;3.88;;
57561;SDS011;43397;51.530;5.974;2023-04-21T05:20:17;3.70;;;3.40;;
57561;SDS011;43397;51.530;5.974;2023-04-21T05:22:42;4.38;;;3.97;;
57561;SDS011;43397;51.530;5.974;2023-04-21T05:25:09;6.32;;;3.15;;
57561;SDS011;43397;51.530;5.974;2023-04-21T05:27:35;9.98;;;5.68;;
57561;SDS011;43397;51.530;5.974;2023-04-21T05:30:00;2.38;;;2.22;;
57561;SDS011;43397;51.530;5.974;2023-04-21T05:32:26;5.15;;;4.78;;
57561;SDS011;43397;51.530;5.974;2023-04-21T05:34:52;4.95;;;4.10;;
57561;SDS011;43397;51.530;5.974;2023-04-21T05:37:19;7.07;;;6.05;;
57561;SDS011;43397;51.530;5.974;2023-04-21T05:39:44;7.60;;;3.67;;
57561;SDS011;43397;51.530;5.974;2023-04-21T05:42:10;4.63;;;3.97;;
57561;SDS011;43397;51.530;5.974;2023-04-21T05:44:36;10.30;;;5.35;;
57561;SDS011;43397;51.530;5.974;2023-04-21T05:47:02;3.38;;;2.65;;
57561;SDS011;43397;51.530;5.974;2023-04-21T05:49:28;2.30;;;2.20;;
57561;SDS011;43397;51.530;5.974;2023-04-21T05:51:54;3.53;;;3.28;;
57561;SDS011;43397;51.530;5.974;2023-04-21T05:54:21;9.68;;;3.00;;
57561;SDS011;43397;51.530;5.974;2023-04-21T05:56:46;5.25;;;4.47;;
57561;SDS011;43397;51.530;5.974;2023-04-21T05:59:12;4.72;;;3.53;;
57561;SDS011;43397;51.530;5.974;2023-04-21T06:01:38;5.78;;;3.88;;
57561;SDS011;43397;51.530;5.974;2023-04-21T06:04:03;2.40;;;2.05;;
57561;SDS011;43397;51.530;5.974;2023-04-21T06:06:29;4.03;;;3.70;;
57561;SDS011;43397;51.530;5.974;2023-04-21T06:08:55;3.25;;;2.95;;
57561;SDS011;43397;51.530;5.974;2023-04-21T06:11:22;4.85;;;2.63;;
57561;SDS011;43397;51.530;5.974;2023-04-21T06:13:48;12.00;;;6.50;;
57561;SDS011;43397;51.530;5.974;2023-04-21T06:16:13;16.23;;;4.32;;
57561;SDS011;43397;51.530;5.974;2023-04-21T06:18:39;7.93;;;6.20;;
57561;SDS011;43397;51.530;5.974;2023-04-21T06:21:05;8.68;;;3.42;;
57561;SDS011;43397;51.530;5.974;2023-04-21T06:23:30;13.73;;;6.07;;
57561;SDS011;43397;51.530;5.974;2023-04-21T06:25:59;15.68;;;4.20;;
57561;SDS011;43397;51.530;5.974;2023-04-21T06:28:26;8.27;;;5.15;;
57561;SDS011;43397;51.530;5.974;2023-04-21T06:30:52;4.60;;;4.22;;
57561;SDS011;43397;51.530;5.974;2023-04-21T06:33:18;3.20;;;2.67;;
57561;SDS011;43397;51.530;5.974;2023-04-21T06:35:43;4.95;;;3.33;;
57561;SDS011;43397;51.530;5.974;2023-04-21T06:38:09;8.35;;;4.82;;
57561;SDS011;43397;51.530;5.974;2023-04-21T06:40:34;3.05;;;2.85;;
57561;SDS011;43397;51.530;5.974;2023-04-21T06:43:00;1.30;;;1.25;;
57561;SDS011;43397;51.530;5.974;2023-04-21T06:45:27;5.80;;;5.07;;
57561;SDS011;43397;51.530;5.974;2023-04-21T06:47:53;5.78;;;2.95;;
57561;SDS011;43397;51.530;5.974;2023-04-21T06:50:18;3.95;;;3.60;;
57561;SDS011;43397;51.530;5.974;2023-04-21T06:52:44;3.40;;;2.05;;
57561;SDS011;43397;51.530;5.974;2023-04-21T06:55:10;4.68;;;4.07;;
57561;SDS011;43397;51.530;5.974;2023-04-21T06:57:35;6.25;;;4.80;;
57561;SDS011;43397;51.530;5.974;2023-04-21T07:00:01;3.83;;;2.75;;
57561;SDS011;43397;51.530;5.974;2023-04-21T07:02:29;2.42;;;2.15;;
57561;SDS011;43397;51.530;5.974;2023-04-21T07:04:54;2.05;;;1.45;;
57561;SDS011;43397;51.530;5.974;2023-04-21T07:07:20;4.78;;;3.83;;
57561;SDS011;43397;51.530;5.974;2023-04-21T07:09:46;5.88;;;3.92;;
57561;SDS011;43397;51.530;5.974;2023-04-21T07:12:12;5.10;;;3.78;;
57561;SDS011;43397;51.530;5.974;2023-04-21T07:14:37;2.72;;;2.00;;
57561;SDS011;43397;51.530;5.974;2023-04-21T07:17:03;6.22;;;4.80;;
57561;SDS011;43397;51.530;5.974;2023-04-21T07:19:30;4.10;;;3.03;;
57561;SDS011;43397;51.530;5.974;2023-04-21T07:21:56;3.38;;;3.08;;
57561;SDS011;43397;51.530;5.974;2023-04-21T07:24:21;4.80;;;3.28;;
57561;SDS011;43397;51.530;5.974;2023-04-21T07:26:47;0.93;;;0.93;;
57561;SDS011;43397;51.530;5.974;2023-04-21T07:29:13;1.02;;;0.95;;
57561;SDS011;43397;51.530;5.974;2023-04-21T07:31:38;5.68;;;3.10;;
57561;SDS011;43397;51.530;5.974;2023-04-21T07:34:04;2.08;;;1.83;;
57561;SDS011;43397;51.530;5.974;2023-04-21T07:36:31;1.70;;;1.38;;
57561;SDS011;43397;51.530;5.974;2023-04-21T07:38:57;2.95;;;2.20;;
57561;SDS011;43397;51.530;5.974;2023-04-21T07:41:22;3.55;;;3.05;;
57561;SDS011;43397;51.530;5.974;2023-04-21T07:43:48;2.47;;;2.15;;
57561;SDS011;43397;51.530;5.974;2023-04-21T07:46:13;4.65;;;4.25;;
57561;SDS011;43397;51.530;5.974;2023-04-21T07:48:39;1.02;;;0.90;;
57561;SDS011;43397;51.530;5.974;2023-04-21T07:51:05;4.53;;;3.75;;
57561;SDS011;43397;51.530;5.974;2023-04-21T07:53:32;1.45;;;1.35;;
57561;SDS011;43397;51.530;5.974;2023-04-21T07:55:58;3.22;;;2.00;;
57561;SDS011;43397;51.530;5.974;2023-04-21T07:58:24;1.63;;;1.50;;
57561;SDS011;43397;51.530;5.974;2023-04-21T08:00:49;3.30;;;2.38;;
57561;SDS011;43397;51.530;5.974;2023-04-21T08:03:15;1.55;;;1.38;;
57561;SDS011;43397;51.530;5.974;2023-04-21T08:05:41;6.82;;;3.92;;
57561;SDS011;43397;51.530;5.974;2023-04-21T08:08:07;1.35;;;0.93;;
57561;SDS011;43397;51.530;5.974;2023-04-21T08:10:34;1.67;;;1.58;;
57561;SDS011;43397;51.530;5.974;2023-04-21T08:13:00;1.42;;;1.20;;
57561;SDS011;43397;51.530;5.974;2023-04-21T08:15:25;1.90;;;1.13;;
57561;SDS011;43397;51.530;5.974;2023-04-21T08:17:51;1.77;;;1.63;;
57561;SDS011;43397;51.530;5.974;2023-04-21T08:20:17;5.78;;;2.67;;
57561;SDS011;43397;51.530;5.974;2023-04-21T08:22:42;4.85;;;3.55;;
57561;SDS011;43397;51.530;5.974;2023-04-21T08:25:08;2.53;;;1.85;;
57561;SDS011;43397;51.530;5.974;2023-04-21T08:27:37;3.63;;;1.40;;
57561;SDS011;43397;51.530;5.974;2023-04-21T08:30:03;1.70;;;0.95;;
57561;SDS011;43397;51.530;5.974;2023-04-21T08:32:30;2.63;;;1.42;;
57561;SDS011;43397;51.530;5.974;2023-04-21T08:34:56;2.63;;;2.30;;
57561;SDS011;43397;51.530;5.974;2023-04-21T08:37:22;1.27;;;1.15;;
57561;SDS011;43397;51.530;5.974;2023-04-21T08:39:47;3.30;;;2.35;;
57561;SDS011;43397;51.530;5.974;2023-04-21T08:42:13;3.55;;;2.08;;
57561;SDS011;43397;51.530;5.974;2023-04-21T08:44:42;1.23;;;1.13;;
57561;SDS011;43397;51.530;5.974;2023-04-21T08:47:08;1.58;;;1.48;;
57561;SDS011;43397;51.530;5.974;2023-04-21T08:49:34;1.80;;;1.63;;
57561;SDS011;43397;51.530;5.974;2023-04-21T08:52:02;1.65;;;1.33;;
57561;SDS011;43397;51.530;5.974;2023-04-21T08:54:27;1.33;;;1.23;;
57561;SDS011;43397;51.530;5.974;2023-04-21T08:56:53;1.48;;;1.15;;
57561;SDS011;43397;51.530;5.974;2023-04-21T08:59:19;2.30;;;1.50;;
57561;SDS011;43397;51.530;5.974;2023-04-21T09:04:36;1.90;;;1.02;;
57561;SDS011;43397;51.530;5.974;2023-04-21T09:07:03;3.53;;;2.88;;
57561;SDS011;43397;51.530;5.974;2023-04-21T09:09:28;3.55;;;3.03;;
57561;SDS011;43397;51.530;5.974;2023-04-21T09:11:54;4.65;;;3.65;;
57561;SDS011;43397;51.530;5.974;2023-04-21T09:14:20;1.42;;;1.38;;
57561;SDS011;43397;51.530;5.974;2023-04-21T09:16:47;2.80;;;2.38;;
57561;SDS011;43397;51.530;5.974;2023-04-21T09:19:26;0.82;;;0.75;;
57561;SDS011;43397;51.530;5.974;2023-04-21T09:21:52;0.82;;;0.70;;
57561;SDS011;43397;51.530;5.974;2023-04-21T09:24:18;2.65;;;1.92;;
57561;SDS011;43397;51.530;5.974;2023-04-21T09:26:43;3.38;;;2.70;;
57561;SDS011;43397;51.530;5.974;2023-04-21T09:29:09;2.80;;;2.60;;
57561;SDS011;43397;51.530;5.974;2023-04-21T09:31:35;3.50;;;2.20;;
57561;SDS011;43397;51.530;5.974;2023-04-21T09:34:00;1.95;;;1.75;;
57561;SDS011;43397;51.530;5.974;2023-04-21T09:36:28;3.22;;;2.22;;
57561;SDS011;43397;51.530;5.974;2023-04-21T09:38:55;2.00;;;1.63;;
57561;SDS011;43397;51.530;5.974;2023-04-21T09:41:21;2.40;;;1.95;;
57561;SDS011;43397;51.530;5.974;2023-04-21T09:43:46;2.75;;;2.50;;
57561;SDS011;43397;51.530;5.974;2023-04-21T09:46:12;1.52;;;1.15;;
57561;SDS011;43397;51.530;5.974;2023-04-21T09:48:42;2.25;;;2.05;;
57561;SDS011;43397;51.530;5.974;2023-04-21T09:51:09;1.48;;;1.38;;
57561;SDS011;43397;51.530;5.974;2023-04-21T09:53:38;2.28;;;1.95;;
57561;SDS011;43397;51.530;5.974;2023-04-21T09:56:04;2.53;;;2.33;;
57561;SDS011;43397;51.530;5.974;2023-04-21T09:58:36;42.10;;;29.80;;
57561;SDS011;43397;51.530;5.974;2023-04-21T10:01:05;40.13;;;28.73;;
57561;SDS011;43397;51.530;5.974;2023-04-21T10:03:32;40.80;;;29.10;;
57561;SDS011;43397;51.530;5.974;2023-04-21T10:06:02;38.63;;;30.10;;
57561;SDS011;43397;51.530;5.974;2023-04-21T10:08:29;39.97;;;31.10;;
57561;SDS011;43397;51.530;5.974;2023-04-21T10:10:56;34.85;;;23.65;;
57561;SDS011;43397;51.530;5.974;2023-04-21T10:13:23;39.77;;;28.70;;
57561;SDS011;43397;51.530;5.974;2023-04-21T10:15:49;38.15;;;29.27;;
57561;SDS011;43397;51.530;5.974;2023-04-21T10:18:26;35.13;;;26.88;;
57561;SDS011;43397;51.530;5.974;2023-04-21T10:20:54;37.55;;;29.95;;
57561;SDS011;43397;51.530;5.974;2023-04-21T10:23:30;32.42;;;26.50;;
57561;SDS011;43397;51.530;5.974;2023-04-21T10:26:02;36.20;;;27.23;;
57561;SDS011;43397;51.530;5.974;2023-04-21T10:28:40;40.30;;;29.20;;
57561;SDS011;43397;51.530;5.974;2023-04-21T10:31:17;35.17;;;26.92;;
57561;SDS011;43397;51.530;5.974;2023-04-21T10:36:41;37.92;;;29.92;;
57561;SDS011;43397;51.530;5.974;2023-04-21T10:39:20;39.78;;;31.48;;
57561;SDS011;43397;51.530;5.974;2023-04-21T10:41:52;38.80;;;30.02;;
57561;SDS011;43397;51.530;5.974;2023-04-21T10:44:20;34.40;;;24.83;;
57561;SDS011;43397;51.530;5.974;2023-04-21T10:46:46;38.97;;;28.73;;
57561;SDS011;43397;51.530;5.974;2023-04-21T10:49:19;34.22;;;23.63;;
57561;SDS011;43397;51.530;5.974;2023-04-21T10:52:02;34.40;;;26.65;;
57561;SDS011;43397;51.530;5.974;2023-04-21T10:54:28;33.67;;;25.98;;
57561;SDS011;43397;51.530;5.974;2023-04-21T10:57:03;34.50;;;26.02;;
57561;SDS011;43397;51.530;5.974;2023-04-21T10:59:30;32.88;;;25.58;;
57561;SDS011;43397;51.530;5.974;2023-04-21T11:01:56;35.65;;;26.05;;
57561;SDS011;43397;51.530;5.974;2023-04-21T11:04:22;32.13;;;25.33;;
57561;SDS011;43397;51.530;5.974;2023-04-21T11:07:03;31.90;;;27.05;;
57561;SDS011;43397;51.530;5.974;2023-04-21T11:09:29;33.67;;;25.67;;
57561;SDS011;43397;51.530;5.974;2023-04-21T11:11:56;35.60;;;28.58;;
57561;SDS011;43397;51.530;5.974;2023-04-21T11:14:24;35.50;;;27.75;;
57561;SDS011;43397;51.530;5.974;2023-04-21T11:16:49;32.75;;;26.08;;
57561;SDS011;43397;51.530;5.974;2023-04-21T11:19:16;34.53;;;27.65;;
57561;SDS011;43397;51.530;5.974;2023-04-21T11:21:41;32.67;;;25.33;;
57561;SDS011;43397;51.530;5.974;2023-04-21T11:24:07;30.80;;;24.50;;
57561;SDS011;43397;51.530;5.974;2023-04-21T11:26:34;29.73;;;23.40;;
57561;SDS011;43397;51.530;5.974;2023-04-21T11:29:01;27.67;;;23.52;;
57561;SDS011;43397;51.530;5.974;2023-04-21T11:31:29;30.48;;;25.02;;
57561;SDS011;43397;51.530;5.974;2023-04-21T11:33:55;28.58;;;21.77;;
57561;SDS011;43397;51.530;5.974;2023-04-21T11:36:22;25.33;;;19.30;;
57561;SDS011;43397;51.530;5.974;2023-04-21T11:38:48;28.70;;;21.45;;
57561;SDS011;43397;51.530;5.974;2023-04-21T11:41:19;29.35;;;21.08;;
57561;SDS011;43397;51.530;5.974;2023-04-21T11:43:45;27.15;;;19.38;;
57561;SDS011;43397;51.530;5.974;2023-04-21T11:46:11;24.25;;;18.65;;
57561;SDS011;43397;51.530;5.974;2023-04-21T11:48:39;24.23;;;18.33;;
57561;SDS011;43397;51.530;5.974;2023-04-21T11:51:04;23.10;;;17.58;;
57561;SDS011;43397;51.530;5.974;2023-04-21T11:53:30;27.98;;;19.23;;
57561;SDS011;43397;51.530;5.974;2023-04-21T11:55:57;29.10;;;23.30;;
57561;SDS011;43397;51.530;5.974;2023-04-21T11:58:22;24.60;;;20.17;;
57561;SDS011;43397;51.530;5.974;2023-04-21T12:00:49;22.38;;;17.52;;
57561;SDS011;43397;51.530;5.974;2023-04-21T12:03:15;24.67;;;19.77;;
57561;SDS011;43397;51.530;5.974;2023-04-21T12:05:44;27.47;;;21.40;;
57561;SDS011;43397;51.530;5.974;2023-04-21T12:08:12;26.15;;;19.23;;
57561;SDS011;43397;51.530;5.974;2023-04-21T12:10:38;25.15;;;19.60;;
57561;SDS011;43397;51.530;5.974;2023-04-21T12:13:09;24.58;;;20.25;;
57561;SDS011;43397;51.530;5.974;2023-04-21T12:15:34;26.60;;;19.10;;
57561;SDS011;43397;51.530;5.974;2023-04-21T12:18:00;24.10;;;19.55;;
57561;SDS011;43397;51.530;5.974;2023-04-21T12:20:27;22.30;;;16.98;;
57561;SDS011;43397;51.530;5.974;2023-04-21T12:22:55;21.50;;;17.13;;
57561;SDS011;43397;51.530;5.974;2023-04-21T12:25:20;25.55;;;19.98;;
57561;SDS011;43397;51.530;5.974;2023-04-21T12:27:46;26.88;;;20.90;;
57561;SDS011;43397;51.530;5.974;2023-04-21T12:30:12;30.02;;;24.50;;
57561;SDS011;43397;51.530;5.974;2023-04-21T12:32:38;33.70;;;26.35;;
57561;SDS011;43397;51.530;5.974;2023-04-21T12:35:04;32.25;;;25.58;;
57561;SDS011;43397;51.530;5.974;2023-04-21T12:37:30;35.65;;;26.73;;
57561;SDS011;43397;51.530;5.974;2023-04-21T12:39:57;32.88;;;27.95;;
57561;SDS011;43397;51.530;5.974;2023-04-21T12:42:23;32.80;;;27.00;;
57561;SDS011;43397;51.530;5.974;2023-04-21T12:44:49;27.67;;;22.95;;
57561;SDS011;43397;51.530;5.974;2023-04-21T12:47:14;29.83;;;25.85;;
57561;SDS011;43397;51.530;5.974;2023-04-21T12:49:40;30.20;;;24.48;;
57561;SDS011;43397;51.530;5.974;2023-04-21T12:52:06;29.88;;;23.33;;
57561;SDS011;43397;51.530;5.974;2023-04-21T12:54:32;29.85;;;24.73;;
57561;SDS011;43397;51.530;5.974;2023-04-21T12:56:59;32.78;;;25.42;;
57561;SDS011;43397;51.530;5.974;2023-04-21T12:59:25;30.55;;;26.52;;
57561;SDS011;43397;51.530;5.974;2023-04-21T13:01:50;27.85;;;23.67;;
57561;SDS011;43397;51.530;5.974;2023-04-21T13:04:16;31.35;;;26.55;;
57561;SDS011;43397;51.530;5.974;2023-04-21T13:06:42;31.65;;;26.33;;
57561;SDS011;43397;51.530;5.974;2023-04-21T13:09:07;34.38;;;27.67;;
57561;SDS011;43397;51.530;5.974;2023-04-21T13:11:33;31.25;;;26.48;;
57561;SDS011;43397;51.530;5.974;2023-04-21T13:14:00;31.13;;;24.55;;
57561;SDS011;43397;51.530;5.974;2023-04-21T13:16:26;35.90;;;27.38;;
57561;SDS011;43397;51.530;5.974;2023-04-21T13:18:52;34.15;;;28.13;;
57561;SDS011;43397;51.530;5.974;2023-04-21T13:21:17;32.47;;;26.23;;
57561;SDS011;43397;51.530;5.974;2023-04-21T13:23:43;34.35;;;27.02;;
57561;SDS011;43397;51.530;5.974;2023-04-21T13:26:09;30.42;;;24.35;;
57561;SDS011;43397;51.530;5.974;2023-04-21T13:28:35;35.25;;;28.17;;
57561;SDS011;43397;51.530;5.974;2023-04-21T13:31:03;35.40;;;28.75;;
57561;SDS011;43397;51.530;5.974;2023-04-21T13:33:29;31.00;;;24.77;;
57561;SDS011;43397;51.530;5.974;2023-04-21T13:35:55;31.40;;;26.30;;
57561;SDS011;43397;51.530;5.974;2023-04-21T13:38:20;29.50;;;22.98;;
57561;SDS011;43397;51.530;5.974;2023-04-21T13:40:46;32.50;;;25.00;;
57561;SDS011;43397;51.530;5.974;2023-04-21T13:43:11;32.10;;;25.95;;
57561;SDS011;43397;51.530;5.974;2023-04-21T13:45:37;35.25;;;27.33;;
57561;SDS011;43397;51.530;5.974;2023-04-21T13:48:04;36.10;;;28.17;;
57561;SDS011;43397;51.530;5.974;2023-04-21T13:50:30;31.67;;;26.38;;
57561;SDS011;43397;51.530;5.974;2023-04-21T13:52:56;28.85;;;21.60;;
57561;SDS011;43397;51.530;5.974;2023-04-21T13:55:22;25.60;;;19.83;;
57561;SDS011;43397;51.530;5.974;2023-04-21T13:57:47;27.27;;;21.33;;
57561;SDS011;43397;51.530;5.974;2023-04-21T14:00:13;25.58;;;19.02;;
57561;SDS011;43397;51.530;5.974;2023-04-21T14:02:40;25.52;;;20.55;;
57561;SDS011;43397;51.530;5.974;2023-04-21T14:05:07;27.40;;;21.23;;
57561;SDS011;43397;51.530;5.974;2023-04-21T14:07:33;27.73;;;21.98;;
57561;SDS011;43397;51.530;5.974;2023-04-21T14:09:59;25.63;;;20.30;;
57561;SDS011;43397;51.530;5.974;2023-04-21T14:12:25;31.67;;;23.50;;
57561;SDS011;43397;51.530;5.974;2023-04-21T14:14:50;26.27;;;19.88;;
57561;SDS011;43397;51.530;5.974;2023-04-21T14:17:16;25.05;;;18.23;;
57561;SDS011;43397;51.530;5.974;2023-04-21T14:19:42;27.15;;;18.77;;
57561;SDS011;43397;51.530;5.974;2023-04-21T14:22:09;26.70;;;19.75;;
57561;SDS011;43397;51.530;5.974;2023-04-21T14:24:35;24.05;;;18.67;;
57561;SDS011;43397;51.530;5.974;2023-04-21T14:27:00;27.00;;;20.50;;
57561;SDS011;43397;51.530;5.974;2023-04-21T14:29:26;27.60;;;21.60;;
57561;SDS011;43397;51.530;5.974;2023-04-21T14:31:52;24.75;;;20.27;;
57561;SDS011;43397;51.530;5.974;2023-04-21T14:34:17;26.80;;;19.65;;
57561;SDS011;43397;51.530;5.974;2023-04-21T14:36:43;24.63;;;19.00;;